Auburn, AL

9:21 PM CDT on October 01, 2014 (GMT -0500)
KALAUBUR4 | Change Station
CLOSE
Current Station
Personal Weather Station
Location: Auburn, AL
Elevation: 646 ft
Nearby Weather Stations

Elev 646 ft 32.58 °N, 85.45 °W | Updated 2 minutes ago

Clear
Clear
67.3 °F
Feels Like 67.3 °F
N
0.0
Wind Variable Wind from SW

Today
High -- | Low -- °F
--% Chance of Precip.
Yesterday
High -- | Low -- °F
Precip. -- in
6:36 AM 6:26 PM
First Quarter, 53% visible
Pressure 30.05 in
Visibility 10.0 miles
Clouds Clear
Dew Point 65 °F
Humidity 93%
Rainfall 0.00 in
Snow Depth Not available.
UV 0 out of 12
Pollen 5.90 out of 12
Air Quality Not available.
Flu Activity Not available.
METAR KAUO 020215Z 00000KT 10SM CLR 21/16 A3005 RMK AO1

More Conditions Fewer Conditions

Pressure 30.05 in
Visibility 10.0 miles
Clouds Clear
Dew Point 65 °F
Humidity 93%
Rainfall 0.00 in
Snow Depth Not available.
UV 0 out of 12
Pollen 5.90 out of 12
Air Quality Not available.
Flu Activity Not available.
METAR KAUO 020215Z 00000KT 10SM CLR 21/16 A3005 RMK AO1

More Conditions Fewer Conditions

10-Day Weather Forecast

Almanac

Astronomy

Oct. 01, 2014 Rise Set
Actual Time 6:36 AM CDT 6:26 PM CDT
Civil Twilight 6:11 AM CDT 6:51 PM CDT
Nautical Twilight 5:43 AM CDT 7:19 PM CDT
Astronomical Twilight 5:14 AM CDT 7:48 PM CDT
Moon 1:22 PM CDT (10/1) No Moon Set
Length of Visible Light 12h 39m
Length of Day
11h 50m
Tomorrow will be 1m 59s shorter.
First Quarter, 53% of the Moon is Illuminated
Today
First Quarter
Oct 8
Full
Oct 15
Last Quarter
Oct 23
New
Oct 30
First Quarter

Today's Extremes

State Highs State Lows

Community

WunderPhotos

Upload Photos

1,758,142 photos uploaded!

WunderBlogs® & News

Nearby

Snow Depth

Station Depth Elevation
No new snow has been reported.

Earthquake Activity

City Distance Mag. Time & Date
No recent earthquake activity has been reported nearby.
Minimum magnitude displayed is 2.5.

Coastal Water Temperatures

Place Temperature
No Stations Reporting

Nearby Weather Stations